Weldon, Illinois
Current Conditions -  °F | °C
As of 6:54 PM on Wednesday 22 Oct 2014 (Local Time) from KDEC Reporting Station
Clear Clear  
Wind Chill: 45°   Ceiling: Unl
Heat Index: 48°   Visibility: 10mi
Dew Point: 37°   Wind: 7mph
Humidity: 66%   Direction: 110°ESE
Pressure: 30.24"   Gusts: NA
Location:  40.12°N, 88.75°W
Report Text: KDEC 222354Z 11006KT 10SM CLR 09/03 A3024 RMK AO2 SLP244 T00890028 10161 20089 56010
Loading
Personal Weather Stations






























Interactive Weather Map
Tropical Storm Tracking
New forecast layout! Learn more

10-Day Weather Forecast

Advertisements
Track Severe Weather on mobile